Welch, Minnesota
Current Conditions -  °F | °C
As of 7:34 AM on Monday 24 Nov 2014 (Local Time) from KSYN Reporting Station
Haze Haze  
Wind Chill: 11°   Ceiling: 900
Heat Index: 26°   Visibility: 4mi
Dew Point: 22°   Wind: 22mph
Humidity: 87%   Direction: 300°WNW
Pressure: 29.36"   Gusts: NA
Location:  44.57°N, 92.74°W
Report Text: KSYN 241334Z AUTO 30019KT 4SM BR OVC009 M04/M05 A2936 RMK AO2 T10361055
Loading
Personal Weather Stations






























Interactive Weather Map New forecast layout! Learn more

10-Day Weather Forecast

Advertisements
Track Severe Weather on mobile